createdAt,value
2022-12-11T00:00:25.941Z,100906.66
2022-12-11T00:02:52.809Z,100907.34
2022-12-11T00:05:19.665Z,100885.34
2022-12-11T00:07:46.357Z,100905.91
2022-12-11T00:10:13.090Z,100906.94
2022-12-11T00:12:39.751Z,100903.88
2022-12-11T00:15:07.469Z,100899.81
2022-12-11T00:17:34.485Z,100898.53
2022-12-11T00:20:02.102Z,100888.13
2022-12-11T00:22:31.057Z,100887.28
2022-12-11T00:24:57.715Z,100883.66
2022-12-11T00:27:24.416Z,100883.75
2022-12-11T00:29:51.137Z,100884.81
2022-12-11T00:32:17.812Z,100880.53
2022-12-11T00:34:44.475Z,100886.34
2022-12-11T00:37:11.176Z,100883.63
2022-12-11T00:39:39.809Z,100885.31
2022-12-11T00:42:07.871Z,100881.91
2022-12-11T00:44:35.356Z,100871.81
2022-12-11T00:47:02.408Z,100871.28
2022-12-11T00:49:29.596Z,100877.75
2022-12-11T00:51:56.478Z,100879.91
2022-12-11T00:54:23.454Z,100896.69
2022-12-11T00:56:50.714Z,100880.94
2022-12-11T00:59:17.463Z,100889.38
2022-12-11T01:01:44.187Z,100896.22
2022-12-11T01:04:10.939Z,100889.13
2022-12-11T01:06:37.556Z,100888.88
2022-12-11T01:09:42.832Z,100878.88
2022-12-11T01:12:09.627Z,100874.19
2022-12-11T01:14:36.386Z,100875.69
2022-12-11T01:17:03.305Z,100887.31
2022-12-11T01:19:30.200Z,100888.59
2022-12-11T01:21:56.907Z,100898.81
2022-12-11T01:24:23.566Z,100885.91
2022-12-11T01:26:50.509Z,100874.84
2022-12-11T01:29:17.302Z,100884.00
2022-12-11T01:31:44.149Z,100884.63
2022-12-11T01:34:10.793Z,100874.75
2022-12-11T01:36:37.620Z,100868.56
2022-12-11T01:39:04.266Z,100875.06
2022-12-11T01:41:31.013Z,100879.69
2022-12-11T01:44:14.676Z,100874.31
2022-12-11T01:46:42.861Z,100873.03
2022-12-11T01:49:13.918Z,100872.72
2022-12-11T01:51:51.815Z,100872.34
2022-12-11T01:54:23.736Z,100879.41
2022-12-11T01:56:55.291Z,100873.91
2022-12-11T01:59:26.908Z,100865.41
2022-12-11T02:02:16.215Z,100870.16
2022-12-11T02:04:44.728Z,100866.91
2022-12-11T02:07:12.024Z,100865.41
2022-12-11T02:09:42.479Z,100872.28
2022-12-11T02:12:42.728Z,100864.41
2022-12-11T02:15:20.270Z,100866.66
2022-12-11T02:18:06.497Z,100867.50
2022-12-11T02:20:58.672Z,100865.63
2022-12-11T02:23:48.001Z,100863.44
2022-12-11T02:26:21.562Z,100855.16
2022-12-11T02:28:58.919Z,100861.66
2022-12-11T02:31:59.037Z,100852.59
2022-12-11T02:34:43.258Z,100852.22
2022-12-11T02:37:20.108Z,100846.38
2022-12-11T02:39:49.553Z,100843.03
2022-12-11T02:42:18.381Z,100854.69
2022-12-11T02:44:48.762Z,100861.25
2022-12-11T02:47:18.206Z,100858.78
2022-12-11T02:49:49.315Z,100860.28
2022-12-11T02:52:22.111Z,100858.94
2022-12-11T02:54:51.995Z,100855.75
2022-12-11T02:57:44.470Z,100867.06
2022-12-11T03:00:12.523Z,100851.41
2022-12-11T03:02:40.556Z,100853.56
2022-12-11T03:05:08.635Z,100857.00
2022-12-11T03:07:40.710Z,100847.41
2022-12-11T03:10:11.889Z,100850.91
2022-12-11T03:12:43.161Z,100856.34
2022-12-11T03:15:16.613Z,100846.81
2022-12-11T03:18:01.520Z,100840.22
2022-12-11T03:20:43.856Z,100838.81
2022-12-11T03:23:24.915Z,100845.94
2022-12-11T03:26:22.319Z,100842.81
2022-12-11T03:28:58.537Z,100841.81
2022-12-11T03:31:40.618Z,100843.19
2022-12-11T03:34:22.617Z,100831.75
2022-12-11T03:36:51.733Z,100830.69
2022-12-11T03:39:33.626Z,100835.59
2022-12-11T03:42:03.585Z,100845.94
2022-12-11T03:44:33.425Z,100856.44
2022-12-11T03:47:03.845Z,100840.34
2022-12-11T03:49:41.288Z,100836.44
2022-12-11T03:52:12.396Z,100842.91
2022-12-11T03:54:41.870Z,100841.88
2022-12-11T03:57:12.262Z,100845.28
2022-12-11T03:59:38.921Z,100836.84
2022-12-11T04:02:11.038Z,100832.53
2022-12-11T04:04:39.632Z,100840.56
2022-12-11T04:07:07.011Z,100824.63
2022-12-11T04:09:34.141Z,100832.75
2022-12-11T04:12:00.887Z,100824.22
2022-12-11T04:14:47.371Z,100832.31
2022-12-11T04:17:34.183Z,100836.06
2022-12-11T04:20:19.840Z,100836.34
2022-12-11T04:23:05.064Z,100843.91
2022-12-11T04:25:31.747Z,100844.81
2022-12-11T04:27:58.414Z,100850.06
2022-12-11T04:30:32.314Z,100835.59
2022-12-11T04:33:00.780Z,100838.84
2022-12-11T04:35:27.525Z,100839.91
2022-12-11T04:37:54.305Z,100846.84
2022-12-11T04:40:21.417Z,100842.34
2022-12-11T04:42:48.310Z,100841.19
2022-12-11T04:45:15.363Z,100844.22
2022-12-11T04:47:42.451Z,100844.00
2022-12-11T04:50:11.996Z,100859.03
2022-12-11T04:52:38.746Z,100854.94
2022-12-11T04:55:07.394Z,100859.38
2022-12-11T04:57:34.936Z,100857.94
2022-12-11T05:00:02.083Z,100867.81
2022-12-11T05:02:28.895Z,100861.50
2022-12-11T05:04:55.555Z,100872.25
2022-12-11T05:07:22.244Z,100871.38
2022-12-11T05:09:49.050Z,100875.09
2022-12-11T05:12:15.720Z,100871.91
2022-12-11T05:14:42.377Z,100869.84
2022-12-11T05:17:09.159Z,100853.69
2022-12-11T05:19:35.918Z,100857.22
2022-12-11T05:22:02.587Z,100861.50
2022-12-11T05:24:29.265Z,100867.09
2022-12-11T05:26:56.128Z,100859.16
2022-12-11T05:29:22.860Z,100853.81
2022-12-11T05:31:49.628Z,100856.19
2022-12-11T05:34:16.266Z,100843.03
2022-12-11T05:36:43.068Z,100838.38
2022-12-11T05:39:11.986Z,100829.09
2022-12-11T05:41:38.719Z,100836.84
2022-12-11T05:44:05.710Z,100827.03
2022-12-11T05:46:32.587Z,100831.31
2022-12-11T05:49:01.740Z,100826.41
2022-12-11T05:51:29.718Z,100820.53
2022-12-11T05:53:57.619Z,100828.63
2022-12-11T05:56:28.538Z,100830.16
2022-12-11T05:58:56.682Z,100825.22
2022-12-11T06:01:31.350Z,100822.69
2022-12-11T06:03:59.355Z,100821.53
2022-12-11T06:06:27.219Z,100822.44
2022-12-11T06:08:56.915Z,100817.03
2022-12-11T06:11:25.965Z,100815.69
2022-12-11T06:13:53.543Z,100806.66
2022-12-11T06:16:21.687Z,100813.28
2022-12-11T06:18:48.634Z,100820.06
2022-12-11T06:21:20.972Z,100818.94
2022-12-11T06:23:50.304Z,100824.25
2022-12-11T06:26:18.287Z,100809.88
2022-12-11T06:28:46.434Z,100796.38
2022-12-11T06:31:14.127Z,100805.16
2022-12-11T06:33:43.047Z,100803.34
2022-12-11T06:36:18.653Z,100796.13
2022-12-11T06:38:45.645Z,100808.34
2022-12-11T06:41:12.711Z,100814.75
2022-12-11T06:43:42.845Z,100810.00
2022-12-11T06:46:15.896Z,100807.75
2022-12-11T06:48:43.630Z,100799.88
2022-12-11T06:51:13.719Z,100802.94
2022-12-11T06:53:41.294Z,100816.88
2022-12-11T06:56:11.896Z,100803.00
2022-12-11T06:58:39.612Z,100810.31
2022-12-11T07:01:16.449Z,100819.25
2022-12-11T07:03:43.515Z,100820.13
2022-12-11T07:06:10.506Z,100825.19
2022-12-11T07:08:37.668Z,100815.75
2022-12-11T07:11:11.347Z,100814.66
2022-12-11T07:13:38.681Z,100820.19
2022-12-11T07:16:10.702Z,100813.19
2022-12-11T07:18:40.128Z,100812.66
2022-12-11T07:21:08.123Z,100819.66
2022-12-11T07:23:35.509Z,100815.94
2022-12-11T07:26:09.247Z,100826.94
2022-12-11T07:28:36.477Z,100823.59
2022-12-11T07:31:15.817Z,100828.22
2022-12-11T07:33:43.553Z,100824.44
2022-12-11T07:36:12.467Z,100826.88
2022-12-11T07:38:39.640Z,100833.50
2022-12-11T07:41:10.970Z,100825.66
2022-12-11T07:43:37.933Z,100836.59
2022-12-11T07:46:12.199Z,100833.19
2022-12-11T07:48:41.501Z,100832.34
2022-12-11T07:51:39.011Z,100840.03
2022-12-11T07:54:11.948Z,100850.47
2022-12-11T07:56:43.698Z,100842.88
2022-12-11T07:59:11.509Z,100838.81
2022-12-11T08:01:39.837Z,100850.59
2022-12-11T08:04:10.610Z,100845.66
2022-12-11T08:06:40.623Z,100845.97
2022-12-11T08:09:14.681Z,100862.16
2022-12-11T08:11:45.922Z,100858.47
2022-12-11T08:14:14.967Z,100859.19
2022-12-11T08:16:43.971Z,100849.06
2022-12-11T08:19:14.407Z,100860.66
2022-12-11T08:21:41.463Z,100857.81
2022-12-11T08:24:08.913Z,100852.44
2022-12-11T08:26:36.688Z,100861.25
2022-12-11T08:29:03.541Z,100860.56
2022-12-11T08:31:30.380Z,100858.38
2022-12-11T08:33:58.015Z,100856.72
2022-12-11T08:36:25.372Z,100857.94
2022-12-11T08:38:53.928Z,100855.56
2022-12-11T08:41:26.961Z,100861.09
2022-12-11T08:43:55.233Z,100843.28
2022-12-11T08:46:25.620Z,100854.16
2022-12-11T08:48:54.014Z,100850.53
2022-12-11T08:51:24.595Z,100854.53
2022-12-11T08:53:54.311Z,100852.34
2022-12-11T08:56:23.555Z,100855.91
2022-12-11T08:58:52.891Z,100854.00
2022-12-11T09:01:23.619Z,100848.94
2022-12-11T09:03:52.317Z,100861.41
2022-12-11T09:06:22.346Z,100863.50
2022-12-11T09:08:52.899Z,100874.16
2022-12-11T09:11:33.942Z,100867.41
2022-12-11T09:14:07.342Z,100855.63
2022-12-11T09:16:37.955Z,100869.34
2022-12-11T09:19:08.482Z,100871.59
2022-12-11T09:21:35.219Z,100867.94
2022-12-11T09:24:02.166Z,100868.94
2022-12-11T09:26:30.186Z,100865.31
2022-12-11T09:28:57.543Z,100856.91
2022-12-11T09:31:28.837Z,100846.66
2022-12-11T09:34:01.180Z,100856.38
2022-12-11T09:36:28.543Z,100841.13
2022-12-11T09:38:55.393Z,100840.88
2022-12-11T09:41:22.077Z,100839.63
2022-12-11T09:44:13.341Z,100850.25
2022-12-11T09:46:41.680Z,100846.34
2022-12-11T09:49:26.440Z,100833.25
2022-12-11T09:52:14.475Z,100821.72
2022-12-11T09:54:57.824Z,100832.75
2022-12-11T09:57:30.363Z,100825.84
2022-12-11T10:00:16.218Z,100822.41
2022-12-11T10:03:14.282Z,100816.47
2022-12-11T10:06:15.045Z,100822.91
2022-12-11T10:09:41.306Z,100816.91
2022-12-11T10:12:40.036Z,100822.81
2022-12-11T10:15:31.546Z,100816.97
2022-12-11T10:18:04.927Z,100811.19
2022-12-11T10:20:39.190Z,100823.94
2022-12-11T10:23:22.399Z,100811.59
2022-12-11T10:26:21.661Z,100809.56
2022-12-11T10:28:49.127Z,100808.09
2022-12-11T10:31:43.786Z,100809.97
2022-12-11T10:34:19.218Z,100810.78
2022-12-11T10:36:46.078Z,100794.16
2022-12-11T10:39:16.706Z,100803.31
2022-12-11T10:41:47.140Z,100812.88
2022-12-11T10:44:22.524Z,100807.00
2022-12-11T10:47:14.568Z,100795.53
2022-12-11T10:49:59.204Z,100796.75
2022-12-11T10:52:28.620Z,100812.19
2022-12-11T10:55:17.525Z,100789.84
2022-12-11T10:57:45.309Z,100783.81
2022-12-11T11:00:32.974Z,100789.50
2022-12-11T11:03:01.598Z,100780.75
2022-12-11T11:05:35.682Z,100775.59
2022-12-11T11:08:12.682Z,100771.84
2022-12-11T11:10:57.896Z,100768.47
2022-12-11T11:13:28.176Z,100770.22
2022-12-11T11:16:07.807Z,100768.50
2022-12-11T11:18:34.866Z,100768.25
2022-12-11T11:21:02.579Z,100773.63
2022-12-11T11:23:29.732Z,100776.13
2022-12-11T11:26:00.342Z,100771.16
2022-12-11T11:28:37.808Z,100772.34
2022-12-11T11:31:16.526Z,100771.91
2022-12-11T11:34:03.097Z,100773.91
2022-12-11T11:36:34.321Z,100769.63
2022-12-11T11:39:25.908Z,100761.91
2022-12-11T11:41:59.145Z,100750.31
2022-12-11T11:44:36.915Z,100749.88
2022-12-11T11:47:16.973Z,100744.84
2022-12-11T11:50:16.331Z,100756.00
2022-12-11T11:53:17.384Z,100753.81
2022-12-11T11:56:01.889Z,100753.97
2022-12-11T11:58:41.108Z,100746.09
2022-12-11T12:01:19.845Z,100749.13
2022-12-11T12:03:48.554Z,100761.59
2022-12-11T12:06:57.451Z,100753.06
2022-12-11T12:10:18.750Z,100741.97
2022-12-11T12:13:47.671Z,100748.91
2022-12-11T12:16:22.986Z,100744.06
2022-12-11T12:19:08.327Z,100749.06
2022-12-11T12:21:38.977Z,100746.59
2022-12-11T12:24:48.013Z,100749.31
2022-12-11T12:27:58.180Z,100740.47
2022-12-11T12:30:22.881Z,100729.50
2022-12-11T12:33:12.188Z,100720.72
2022-12-11T12:36:18.163Z,100733.72
2022-12-11T12:39:03.303Z,100733.97
2022-12-11T12:42:16.495Z,100729.16
2022-12-11T12:44:52.106Z,100717.16
2022-12-11T12:47:20.030Z,100724.06
2022-12-11T12:49:53.090Z,100725.94
2022-12-11T12:52:37.122Z,100719.03
2022-12-11T12:55:22.782Z,100718.34
2022-12-11T12:58:00.482Z,100719.38
2022-12-11T13:00:42.089Z,100723.72
2022-12-11T13:03:21.710Z,100717.72
2022-12-11T13:05:59.424Z,100713.97
2022-12-11T13:08:42.637Z,100710.94
2022-12-11T13:11:13.705Z,100710.25
2022-12-11T13:13:42.974Z,100713.03
2022-12-11T13:16:15.544Z,100720.28
2022-12-11T13:18:45.434Z,100704.41
2022-12-11T13:21:33.698Z,100711.31
2022-12-11T13:24:19.228Z,100708.09
2022-12-11T13:26:47.960Z,100703.44
2022-12-11T13:29:41.479Z,100708.28
2022-12-11T13:32:08.112Z,100708.84
2022-12-11T13:34:42.908Z,100711.03
2022-12-11T13:37:38.467Z,100709.88
2022-12-11T13:40:42.921Z,100723.75
2022-12-11T13:43:27.200Z,100716.19
2022-12-11T13:46:00.758Z,100721.63
2022-12-11T13:48:43.611Z,100723.03
2022-12-11T13:51:19.809Z,100717.66
2022-12-11T13:53:47.841Z,100711.25
2022-12-11T13:56:20.825Z,100714.44
2022-12-11T13:58:49.023Z,100714.66
2022-12-11T14:01:33.385Z,100717.97
2022-12-11T14:04:09.645Z,100725.88
2022-12-11T14:06:38.686Z,100718.63
2022-12-11T14:09:07.111Z,100721.94
2022-12-11T14:11:43.556Z,100727.94
2022-12-11T14:14:28.068Z,100722.22
2022-12-11T14:16:55.037Z,100729.72
2022-12-11T14:19:23.024Z,100730.13
2022-12-11T14:21:59.475Z,100716.94
2022-12-11T14:24:26.786Z,100722.97
2022-12-11T14:26:55.258Z,100728.59
2022-12-11T14:29:31.902Z,100721.16
2022-12-11T14:32:07.111Z,100722.72
2022-12-11T14:34:45.307Z,100727.16
2022-12-11T14:37:15.899Z,100722.56
2022-12-11T14:40:19.671Z,100719.34
2022-12-11T14:43:01.169Z,100724.78
2022-12-11T14:45:48.581Z,100726.84
2022-12-11T14:48:53.869Z,100718.09
2022-12-11T14:51:26.199Z,100718.03
2022-12-11T14:53:54.822Z,100724.28
2022-12-11T14:56:27.655Z,100709.03
2022-12-11T14:59:06.395Z,100723.03
2022-12-11T15:01:36.863Z,100721.88
2022-12-11T15:04:19.592Z,100723.44
2022-12-11T15:06:49.195Z,100710.31
2022-12-11T15:09:41.419Z,100720.41
2022-12-11T15:12:16.066Z,100721.34
2022-12-11T15:15:01.374Z,100723.28
2022-12-11T15:17:30.770Z,100722.19
2022-12-11T15:20:07.543Z,100724.09
2022-12-11T15:22:36.101Z,100723.78
2022-12-11T15:25:03.693Z,100724.94
2022-12-11T15:27:39.523Z,100722.50
2022-12-11T15:30:27.699Z,100735.84
2022-12-11T15:33:09.397Z,100737.53
2022-12-11T15:35:39.225Z,100731.97
2022-12-11T15:38:06.397Z,100733.59
2022-12-11T15:40:33.312Z,100723.56
2022-12-11T15:43:03.152Z,100737.06
2022-12-11T15:45:29.928Z,100732.13
2022-12-11T15:47:57.368Z,100735.34
2022-12-11T15:50:26.371Z,100733.28
2022-12-11T15:52:55.059Z,100730.22
2022-12-11T15:55:25.376Z,100716.22
2022-12-11T15:58:01.815Z,100731.09
2022-12-11T16:00:29.141Z,100729.03
2022-12-11T16:02:57.753Z,100732.91
2022-12-11T16:05:25.888Z,100726.44
2022-12-11T16:07:54.790Z,100726.03
2022-12-11T16:10:22.675Z,100736.31
2022-12-11T16:12:49.880Z,100724.81
2022-12-11T16:15:23.272Z,100720.53
2022-12-11T16:17:59.432Z,100723.44
2022-12-11T16:20:26.301Z,100718.34
2022-12-11T16:22:53.016Z,100712.31
2022-12-11T16:25:19.791Z,100703.50
2022-12-11T16:27:47.044Z,100689.44
2022-12-11T16:30:14.296Z,100690.28
2022-12-11T16:32:40.969Z,100706.09
2022-12-11T16:35:07.858Z,100708.75
2022-12-11T16:37:34.665Z,100711.00
2022-12-11T16:40:01.395Z,100702.56
2022-12-11T16:42:28.150Z,100712.06
2022-12-11T16:44:54.803Z,100712.81
2022-12-11T16:47:21.489Z,100697.91
2022-12-11T16:49:48.172Z,100696.81
2022-12-11T16:52:20.459Z,100698.78
2022-12-11T16:54:48.752Z,100696.59
2022-12-11T16:57:15.749Z,100699.38
2022-12-11T16:59:43.408Z,100699.56
2022-12-11T17:02:11.521Z,100701.97
2022-12-11T17:04:38.525Z,100706.63
2022-12-11T17:07:06.087Z,100706.41
2022-12-11T17:09:33.341Z,100710.03
2022-12-11T17:12:00.221Z,100706.00
2022-12-11T17:14:27.222Z,100701.03
2022-12-11T17:16:55.173Z,100711.09
2022-12-11T17:19:22.325Z,100717.81
2022-12-11T17:21:51.767Z,100715.38
2022-12-11T17:24:18.874Z,100694.78
2022-12-11T17:26:46.283Z,100722.00
2022-12-11T17:29:13.116Z,100712.69
2022-12-11T17:31:40.301Z,100720.66
2022-12-11T17:34:07.278Z,100719.31
2022-12-11T17:36:34.176Z,100715.25
2022-12-11T17:39:00.963Z,100712.66
2022-12-11T17:41:27.744Z,100716.72
2022-12-11T17:43:55.563Z,100703.66
2022-12-11T17:46:23.155Z,100714.69
2022-12-11T17:48:50.140Z,100716.69
2022-12-11T17:51:23.779Z,100717.91
2022-12-11T17:53:55.329Z,100714.91
2022-12-11T17:56:22.703Z,100718.31
2022-12-11T17:58:49.866Z,100720.63
2022-12-11T18:01:17.288Z,100727.59
2022-12-11T18:03:44.347Z,100720.63
2022-12-11T18:06:15.240Z,100720.97
2022-12-11T18:08:42.773Z,100722.88
2022-12-11T18:11:16.887Z,100725.47
2022-12-11T18:13:45.505Z,100732.59
2022-12-11T18:16:20.503Z,100730.13
2022-12-11T18:18:48.505Z,100725.19
2022-12-11T18:21:21.632Z,100723.69
2022-12-11T18:23:50.862Z,100727.63
2022-12-11T18:26:19.642Z,100723.69
2022-12-11T18:28:47.885Z,100723.75
2022-12-11T18:31:14.672Z,100724.19
2022-12-11T18:33:44.201Z,100727.16
2022-12-11T18:36:14.132Z,100733.41
2022-12-11T18:38:42.172Z,100723.88
2022-12-11T18:41:12.137Z,100727.06
2022-12-11T18:43:41.227Z,100724.19
2022-12-11T18:46:10.508Z,100714.88
2022-12-11T18:48:37.788Z,100718.69
2022-12-11T18:51:11.986Z,100713.41
2022-12-11T18:53:39.453Z,100706.06
2022-12-11T18:56:10.393Z,100695.84
2022-12-11T18:58:37.873Z,100706.19
2022-12-11T19:01:16.144Z,100705.75
2022-12-11T19:03:44.218Z,100695.03
2022-12-11T19:06:15.077Z,100699.03
2022-12-11T19:08:42.678Z,100698.22
2022-12-11T19:11:13.347Z,100695.34
2022-12-11T19:13:39.995Z,100701.31
2022-12-11T19:16:07.151Z,100689.66
2022-12-11T19:18:35.205Z,100698.19
2022-12-11T19:21:09.070Z,100699.72
2022-12-11T19:23:37.971Z,100705.72
2022-12-11T19:26:05.330Z,100697.53
2022-12-11T19:28:34.337Z,100703.34
2022-12-11T19:31:01.411Z,100706.56
2022-12-11T19:33:28.460Z,100703.16
2022-12-11T19:36:14.154Z,100706.19
2022-12-11T19:38:43.026Z,100717.00
2022-12-11T19:41:20.031Z,100712.50
2022-12-11T19:43:48.482Z,100719.00
2022-12-11T19:46:16.297Z,100716.88
2022-12-11T19:48:43.468Z,100718.44
2022-12-11T19:51:17.687Z,100715.94
2022-12-11T19:53:47.844Z,100717.13
2022-12-11T19:56:16.988Z,100710.47
2022-12-11T19:58:44.027Z,100720.28
2022-12-11T20:01:30.116Z,100708.94
2022-12-11T20:04:01.009Z,100711.03
2022-12-11T20:06:31.628Z,100710.81
2022-12-11T20:08:59.128Z,100715.47
2022-12-11T20:11:26.479Z,100711.28
2022-12-11T20:13:55.495Z,100701.97
2022-12-11T20:16:45.832Z,100704.31
2022-12-11T20:19:10.114Z,100705.44
2022-12-11T20:21:37.156Z,100708.50
2022-12-11T20:24:04.154Z,100699.06
2022-12-11T20:26:32.511Z,100690.22
2022-12-11T20:28:59.605Z,100706.81
2022-12-11T20:31:28.137Z,100697.78
2022-12-11T20:33:57.102Z,100699.19
2022-12-11T20:36:25.013Z,100693.50
2022-12-11T20:38:52.880Z,100694.53
2022-12-11T20:41:22.788Z,100705.81
2022-12-11T20:43:50.681Z,100708.63
2022-12-11T20:46:18.454Z,100697.47
2022-12-11T20:48:45.776Z,100707.75
2022-12-11T20:51:23.846Z,100705.84
2022-12-11T20:53:58.483Z,100704.41
2022-12-11T20:56:29.576Z,100703.94
2022-12-11T20:58:58.143Z,100706.16
2022-12-11T21:01:28.667Z,100699.78
2022-12-11T21:03:55.497Z,100703.13
2022-12-11T21:06:26.314Z,100699.25
2022-12-11T21:08:54.124Z,100699.09
2022-12-11T21:11:21.518Z,100705.75
2022-12-11T21:13:51.666Z,100701.00
2022-12-11T21:16:19.542Z,100704.75
2022-12-11T21:18:46.939Z,100698.13
2022-12-11T21:21:15.006Z,100697.38
2022-12-11T21:23:41.904Z,100697.91
2022-12-11T21:26:08.717Z,100705.81
2022-12-11T21:28:35.911Z,100684.78
2022-12-11T21:31:07.182Z,100697.13
2022-12-11T21:33:34.213Z,100706.34
2022-12-11T21:36:01.496Z,100699.13
2022-12-11T21:38:28.883Z,100695.91
2022-12-11T21:40:56.543Z,100697.41
2022-12-11T21:43:24.816Z,100688.53
2022-12-11T21:46:00.884Z,100684.44
2022-12-11T21:48:28.481Z,100691.69
2022-12-11T21:50:55.225Z,100694.72
2022-12-11T21:53:21.933Z,100690.06
2022-12-11T21:55:48.626Z,100684.75
2022-12-11T21:58:15.627Z,100676.69
2022-12-11T22:00:42.394Z,100677.66
2022-12-11T22:03:09.186Z,100679.38
2022-12-11T22:05:35.837Z,100677.41
2022-12-11T22:08:02.617Z,100675.81
2022-12-11T22:10:29.510Z,100678.28
2022-12-11T22:12:56.300Z,100683.41
2022-12-11T22:15:23.016Z,100679.41
2022-12-11T22:17:50.094Z,100679.75
2022-12-11T22:20:18.485Z,100685.97
2022-12-11T22:22:46.653Z,100675.03
2022-12-11T22:25:13.875Z,100678.75
2022-12-11T22:27:40.844Z,100675.16
2022-12-11T22:30:08.417Z,100681.47
2022-12-11T22:32:35.213Z,100682.19
2022-12-11T22:35:01.916Z,100674.00
2022-12-11T22:37:29.465Z,100682.59
2022-12-11T22:39:56.292Z,100682.56
2022-12-11T22:42:23.054Z,100681.09
2022-12-11T22:44:49.769Z,100678.16
2022-12-11T22:47:16.547Z,100672.59
2022-12-11T22:49:43.400Z,100680.28
2022-12-11T22:52:10.547Z,100673.22
2022-12-11T22:54:42.572Z,100662.72
2022-12-11T22:57:09.583Z,100668.72
2022-12-11T22:59:36.696Z,100673.16
2022-12-11T23:02:03.703Z,100672.28
2022-12-11T23:04:30.683Z,100670.56
2022-12-11T23:06:57.879Z,100665.16
2022-12-11T23:09:24.817Z,100666.16
2022-12-11T23:11:52.209Z,100666.72
2022-12-11T23:14:19.532Z,100678.31
2022-12-11T23:16:46.378Z,100674.69
2022-12-11T23:19:13.775Z,100680.72
2022-12-11T23:21:40.516Z,100681.97
2022-12-11T23:24:07.810Z,100668.41
2022-12-11T23:26:34.541Z,100673.47
2022-12-11T23:29:01.937Z,100670.50
2022-12-11T23:31:30.114Z,100666.78
2022-12-11T23:33:57.475Z,100669.34
2022-12-11T23:36:25.944Z,100671.91
2022-12-11T23:38:54.981Z,100671.75
2022-12-11T23:41:22.714Z,100676.91
2022-12-11T23:43:49.443Z,100670.13
2022-12-11T23:46:21.849Z,100664.09
2022-12-11T23:48:48.946Z,100676.81
2022-12-11T23:51:19.074Z,100670.50
2022-12-11T23:53:46.930Z,100676.91
2022-12-11T23:56:19.289Z,100678.41
2022-12-11T23:58:46.332Z,100677.72
